Time;durP1;ratioP1;P1;durP2;ratioP2;P2;SDS_P1;SDS_P2;PMS_P1;PMS_P2;Temp;Humidity;BMP_temperature;BMP_pressure;BME280_temperature;BME280_humidity;BME280_pressure;Samples;Min_cycle;Max_cycle;Signal;HPM_P1;HPM_P2
2022/11/27 00:01:39;;;;;;;5.63;0.98;;;;;;;;;;4980263;28;20046;-77
2022/11/27 00:04:05;;;;;;;2.75;1.05;;;;;;;;;;4988100;28;20080;-78
2022/11/27 00:06:31;;;;;;;2.05;0.65;;;;;;;;;;4987403;28;20518;-78
2022/11/27 00:08:59;;;;;;;2.58;0.88;;;;;;;;;;4976048;28;20034;-77
2022/11/27 00:11:25;;;;;;;2.95;0.85;;;;;;;;;;4987367;28;20039;-77
2022/11/27 00:13:51;;;;;;;7.15;1.00;;;;;;;;;;4986459;28;20077;-77
2022/11/27 00:16:18;;;;;;;3.67;1.00;;;;;;;;;;4986639;28;20458;-77
2022/11/27 00:18:43;;;;;;;6.22;1.00;;;;;;;;;;4993033;28;20038;-77
2022/11/27 00:21:33;;;;;;;2.20;0.73;;;;;;;;;;4988210;28;20505;-77
2022/11/27 00:24:01;;;;;;;5.72;1.20;;;;;;;;;;5007740;28;20054;-77
2022/11/27 00:26:28;;;;;;;6.43;1.17;;;;;;;;;;4988876;28;20551;-77
2022/11/27 00:28:53;;;;;;;5.95;0.88;;;;;;;;;;4983177;28;20034;-77
2022/11/27 00:31:28;;;;;;;8.85;0.95;;;;;;;;;;4988585;28;20176;-77
2022/11/27 00:33:54;;;;;;;7.45;1.00;;;;;;;;;;4976451;28;20441;-77
2022/11/27 00:36:20;;;;;;;4.75;0.80;;;;;;;;;;4982203;28;20390;-77
2022/11/27 00:38:46;;;;;;;5.68;1.00;;;;;;;;;;4980623;28;20039;-77
2022/11/27 00:41:17;;;;;;;7.38;1.10;;;;;;;;;;4983351;28;20153;-77
2022/11/27 00:43:43;;;;;;;4.50;0.90;;;;;;;;;;4979943;28;20037;-78
2022/11/27 00:46:08;;;;;;;4.95;1.20;;;;;;;;;;4976136;28;20039;-78
2022/11/27 00:48:34;;;;;;;4.15;0.90;;;;;;;;;;4977175;28;20482;-77
2022/11/27 00:51:01;;;;;;;3.35;0.90;;;;;;;;;;4980850;28;20097;-78
2022/11/27 00:53:26;;;;;;;5.38;1.00;;;;;;;;;;4988728;28;20046;-77
2022/11/27 00:55:53;;;;;;;5.95;0.90;;;;;;;;;;4979918;28;20037;-76
2022/11/27 00:58:18;;;;;;;11.32;1.52;;;;;;;;;;4976419;28;20066;-77
2022/11/27 01:00:43;;;;;;;7.85;1.60;;;;;;;;;;4978830;28;20070;-76
2022/11/27 01:03:09;;;;;;;11.50;1.77;;;;;;;;;;4980023;28;20368;-77
2022/11/27 01:05:36;;;;;;;9.55;1.20;;;;;;;;;;4978428;28;20050;-77
2022/11/27 01:08:02;;;;;;;7.30;1.60;;;;;;;;;;4983552;28;20520;-77
2022/11/27 01:10:28;;;;;;;7.32;1.23;;;;;;;;;;4979408;28;20034;-77
2022/11/27 01:12:53;;;;;;;15.57;1.55;;;;;;;;;;4976191;28;20042;-77
2022/11/27 01:15:19;;;;;;;5.50;1.40;;;;;;;;;;4980909;28;20035;-77
2022/11/27 01:17:44;;;;;;;9.30;1.60;;;;;;;;;;4988133;28;20057;-77
2022/11/27 01:20:10;;;;;;;12.48;2.50;;;;;;;;;;4980701;28;20066;-78
2022/11/27 01:22:35;;;;;;;11.73;1.60;;;;;;;;;;4987423;28;20501;-77
2022/11/27 01:25:00;;;;;;;12.68;1.55;;;;;;;;;;4981119;28;20042;-77
2022/11/27 01:27:26;;;;;;;5.18;1.27;;;;;;;;;;4990950;28;20042;-77
2022/11/27 01:29:51;;;;;;;8.88;1.70;;;;;;;;;;4984136;28;20035;-77
2022/11/27 01:32:17;;;;;;;14.77;1.77;;;;;;;;;;4985184;28;20431;-77
2022/11/27 01:34:42;;;;;;;14.35;1.58;;;;;;;;;;4982940;28;20589;-77
2022/11/27 01:37:07;;;;;;;8.43;1.65;;;;;;;;;;4984451;28;20040;-78
2022/11/27 01:39:33;;;;;;;11.40;1.80;;;;;;;;;;4983506;28;20654;-78
2022/11/27 01:41:58;;;;;;;16.23;2.75;;;;;;;;;;4984039;28;20038;-78
2022/11/27 01:44:23;;;;;;;11.80;1.48;;;;;;;;;;4981957;28;20038;-78
2022/11/27 01:46:53;;;;;;;17.00;1.58;;;;;;;;;;4980120;28;20085;-77
2022/11/27 01:49:28;;;;;;;16.55;1.98;;;;;;;;;;4987924;28;20053;-78
2022/11/27 01:52:29;;;;;;;15.23;1.95;;;;;;;;;;4977565;28;20086;-77
2022/11/27 01:55:07;;;;;;;21.60;3.13;;;;;;;;;;4980006;28;20093;-78
2022/11/27 01:57:40;;;;;;;21.80;1.80;;;;;;;;;;4992282;28;20046;-78
2022/11/27 02:00:07;;;;;;;30.00;3.05;;;;;;;;;;4984447;28;20039;-78
2022/11/27 02:02:33;;;;;;;25.58;2.38;;;;;;;;;;4961575;28;20244;-77
2022/11/27 02:04:58;;;;;;;18.52;2.38;;;;;;;;;;4983273;28;20468;-77
2022/11/27 02:07:23;;;;;;;22.40;2.78;;;;;;;;;;4994202;28;20121;-77
2022/11/27 02:09:49;;;;;;;30.35;2.85;;;;;;;;;;4993056;28;20030;-77
2022/11/27 02:12:26;;;;;;;32.72;2.78;;;;;;;;;;4981325;28;20078;-78
2022/11/27 02:15:03;;;;;;;34.03;3.08;;;;;;;;;;4986531;28;20126;-77
2022/11/27 02:17:38;;;;;;;30.40;3.15;;;;;;;;;;4979418;28;20125;-77
2022/11/27 02:20:27;;;;;;;38.05;3.13;;;;;;;;;;4987107;28;20041;-78
2022/11/27 02:23:08;;;;;;;40.70;3.10;;;;;;;;;;4982763;28;20123;-77
2022/11/27 02:25:58;;;;;;;37.75;3.30;;;;;;;;;;4994489;28;20489;-79
2022/11/27 02:28:51;;;;;;;25.42;3.28;;;;;;;;;;4993042;28;20076;-78
2022/11/27 02:32:06;;;;;;;29.55;2.30;;;;;;;;;;4984094;28;20066;-77
2022/11/27 02:34:31;;;;;;;27.33;2.30;;;;;;;;;;4954218;28;20580;-78
2022/11/27 02:37:09;;;;;;;38.90;3.13;;;;;;;;;;4978029;28;20070;-78
2022/11/27 02:40:00;;;;;;;30.02;2.30;;;;;;;;;;4985337;28;20038;-78
2022/11/27 02:42:28;;;;;;;32.22;2.33;;;;;;;;;;4988929;28;20418;-78
2022/11/27 02:45:00;;;;;;;41.53;2.38;;;;;;;;;;4977031;28;20074;-78
2022/11/27 02:47:27;;;;;;;36.40;3.13;;;;;;;;;;4987698;28;20042;-78
2022/11/27 02:49:55;;;;;;;38.10;3.53;;;;;;;;;;4983945;28;20047;-78
2022/11/27 02:52:22;;;;;;;40.95;2.80;;;;;;;;;;4975930;28;20359;-78
2022/11/27 02:54:49;;;;;;;34.95;3.75;;;;;;;;;;4984560;28;20117;-78
2022/11/27 02:57:14;;;;;;;41.63;3.05;;;;;;;;;;4980485;28;20034;-78
2022/11/27 02:59:41;;;;;;;44.53;3.00;;;;;;;;;;4982646;28;20500;-77
2022/11/27 03:02:12;;;;;;;43.33;3.25;;;;;;;;;;4975858;28;20545;-79
2022/11/27 03:04:42;;;;;;;45.22;3.50;;;;;;;;;;4986346;28;20133;-78
2022/11/27 03:07:14;;;;;;;42.30;3.33;;;;;;;;;;4992858;28;20074;-78
2022/11/27 03:09:45;;;;;;;31.42;3.03;;;;;;;;;;4983716;28;20406;-77
2022/11/27 03:12:11;;;;;;;42.00;3.60;;;;;;;;;;4991082;28;20070;-77
2022/11/27 03:14:38;;;;;;;36.47;4.10;;;;;;;;;;4985758;28;20446;-77
2022/11/27 03:17:31;;;;;;;36.28;2.65;;;;;;;;;;4974590;28;20467;-77
2022/11/27 03:20:12;;;;;;;30.00;2.53;;;;;;;;;;4975304;28;20050;-77
2022/11/27 03:22:37;;;;;;;32.67;2.55;;;;;;;;;;4987610;28;20034;-77
2022/11/27 03:25:03;;;;;;;39.95;2.80;;;;;;;;;;4979144;28;20181;-77
2022/11/27 03:27:34;;;;;;;34.00;3.35;;;;;;;;;;4981905;28;20035;-77
2022/11/27 03:30:01;;;;;;;40.55;3.10;;;;;;;;;;4978892;28;20041;-78
2022/11/27 03:32:28;;;;;;;40.40;3.28;;;;;;;;;;4984007;28;20101;-77
2022/11/27 03:34:53;;;;;;;37.35;3.05;;;;;;;;;;4979960;28;20105;-77
2022/11/27 03:37:19;;;;;;;38.20;3.28;;;;;;;;;;4987143;28;20459;-78
2022/11/27 03:39:45;;;;;;;43.42;3.03;;;;;;;;;;4981388;28;20045;-78
2022/11/27 03:42:26;;;;;;;44.13;2.95;;;;;;;;;;4975309;28;20113;-78
2022/11/27 03:45:10;;;;;;;47.95;3.28;;;;;;;;;;4981595;28;20463;-77
2022/11/27 03:47:47;;;;;;;40.65;3.22;;;;;;;;;;4964933;28;20137;-77
2022/11/27 03:50:28;;;;;;;34.67;2.90;;;;;;;;;;4990485;28;20315;-78
2022/11/27 03:53:20;;;;;;;33.65;2.78;;;;;;;;;;4983758;28;20034;-77
2022/11/27 03:55:46;;;;;;;34.60;2.88;;;;;;;;;;4975472;28;20039;-78
2022/11/27 03:58:18;;;;;;;36.58;2.72;;;;;;;;;;4986490;28;20041;-78
2022/11/27 04:00:44;;;;;;;40.88;3.13;;;;;;;;;;4982586;28;20041;-79
2022/11/27 04:03:11;;;;;;;35.10;2.85;;;;;;;;;;4984712;28;20042;-78
2022/11/27 04:05:37;;;;;;;35.10;3.08;;;;;;;;;;4974039;28;20053;-78
2022/11/27 04:08:03;;;;;;;39.28;3.30;;;;;;;;;;4990999;28;20054;-77
2022/11/27 04:10:28;;;;;;;46.03;3.50;;;;;;;;;;4988026;28;20490;-77
2022/11/27 04:12:54;;;;;;;52.47;3.38;;;;;;;;;;4975312;28;20035;-77
2022/11/27 04:15:20;;;;;;;42.05;3.15;;;;;;;;;;4985145;28;20367;-77
2022/11/27 04:17:45;;;;;;;32.88;3.00;;;;;;;;;;4973712;28;20114;-77
2022/11/27 04:20:12;;;;;;;44.05;3.22;;;;;;;;;;4980693;28;20035;-77
2022/11/27 04:22:37;;;;;;;43.17;3.20;;;;;;;;;;4976282;28;20030;-77
2022/11/27 04:25:03;;;;;;;43.65;3.90;;;;;;;;;;4983518;28;20402;-77
2022/11/27 04:27:28;;;;;;;41.42;4.15;;;;;;;;;;4978234;28;20038;-78
2022/11/27 04:29:54;;;;;;;49.70;2.97;;;;;;;;;;4985216;28;20045;-77
2022/11/27 04:32:19;;;;;;;34.47;3.15;;;;;;;;;;4975360;28;20049;-78
2022/11/27 04:34:44;;;;;;;54.63;3.97;;;;;;;;;;4986654;28;20478;-78
2022/11/27 04:37:10;;;;;;;40.25;3.70;;;;;;;;;;4974432;28;20085;-77
2022/11/27 04:39:35;;;;;;;48.53;4.40;;;;;;;;;;4990633;28;20041;-77
2022/11/27 04:42:01;;;;;;;60.35;4.50;;;;;;;;;;4982107;28;20398;-78
2022/11/27 04:44:26;;;;;;;54.22;3.28;;;;;;;;;;4975552;28;20031;-77
2022/11/27 04:46:51;;;;;;;40.70;3.30;;;;;;;;;;4975225;28;20052;-78
2022/11/27 04:49:17;;;;;;;41.25;3.25;;;;;;;;;;4988573;28;20045;-77
2022/11/27 04:51:42;;;;;;;41.80;3.65;;;;;;;;;;4981185;28;20674;-78
2022/11/27 04:54:08;;;;;;;45.45;3.60;;;;;;;;;;4981750;28;20041;-78
2022/11/27 04:56:33;;;;;;;39.83;3.33;;;;;;;;;;4984099;28;20054;-78
2022/11/27 04:58:58;;;;;;;37.78;3.17;;;;;;;;;;4981578;28;20066;-77
2022/11/27 05:01:24;;;;;;;38.00;2.83;;;;;;;;;;4981487;28;20043;-78
2022/11/27 05:03:49;;;;;;;45.25;3.28;;;;;;;;;;4989887;28;20096;-78
2022/11/27 05:06:15;;;;;;;49.63;4.07;;;;;;;;;;4982251;28;20034;-78
2022/11/27 05:08:40;;;;;;;44.25;3.00;;;;;;;;;;4985879;28;20038;-79
2022/11/27 05:11:09;;;;;;;34.92;2.95;;;;;;;;;;4979894;28;20066;-78
2022/11/27 05:13:35;;;;;;;45.13;3.10;;;;;;;;;;4991986;28;20100;-78
2022/11/27 05:16:00;;;;;;;28.05;2.83;;;;;;;;;;4988075;28;20515;-78
2022/11/27 05:18:26;;;;;;;33.28;3.63;;;;;;;;;;4985132;28;20042;-78
2022/11/27 05:20:59;;;;;;;39.25;3.72;;;;;;;;;;4982365;28;20022;-77
2022/11/27 05:23:25;;;;;;;35.42;3.25;;;;;;;;;;4992663;28;20482;-78
2022/11/27 05:25:51;;;;;;;49.75;3.72;;;;;;;;;;4982877;28;20061;-78
2022/11/27 05:28:16;;;;;;;37.65;3.80;;;;;;;;;;4989403;28;20469;-79
2022/11/27 05:30:42;;;;;;;38.00;3.58;;;;;;;;;;4984364;28;20037;-79
2022/11/27 05:33:07;;;;;;;41.03;3.05;;;;;;;;;;4986086;28;20043;-78
2022/11/27 05:35:33;;;;;;;45.30;3.90;;;;;;;;;;4991944;28;20085;-79
2022/11/27 05:37:58;;;;;;;35.88;2.85;;;;;;;;;;4984734;28;20066;-78
2022/11/27 05:40:23;;;;;;;44.60;3.80;;;;;;;;;;4987863;28;20505;-78
2022/11/27 05:42:49;;;;;;;64.53;3.70;;;;;;;;;;4990390;28;20042;-79
2022/11/27 05:45:14;;;;;;;29.77;2.97;;;;;;;;;;4987910;28;20046;-78
2022/11/27 05:47:40;;;;;;;41.25;3.65;;;;;;;;;;4986213;28;20055;-79
2022/11/27 05:50:06;;;;;;;48.17;3.83;;;;;;;;;;4990274;28;20437;-78
2022/11/27 05:52:31;;;;;;;42.42;3.22;;;;;;;;;;4990540;28;20038;-78
2022/11/27 05:54:57;;;;;;;43.42;2.92;;;;;;;;;;4988909;28;20041;-79
2022/11/27 05:57:22;;;;;;;47.38;4.22;;;;;;;;;;4984623;28;20471;-79
2022/11/27 05:59:47;;;;;;;46.85;3.13;;;;;;;;;;4989565;28;20038;-78
2022/11/27 06:02:13;;;;;;;53.67;3.95;;;;;;;;;;4982477;28;20050;-79
2022/11/27 06:04:38;;;;;;;62.92;4.30;;;;;;;;;;4986176;28;20390;-79
2022/11/27 06:07:03;;;;;;;56.92;4.40;;;;;;;;;;4985753;28;20038;-79
2022/11/27 06:09:29;;;;;;;36.47;3.70;;;;;;;;;;4978106;28;20034;-78
2022/11/27 06:11:54;;;;;;;52.47;4.38;;;;;;;;;;4987841;28;20030;-79
2022/11/27 06:14:20;;;;;;;60.72;5.05;;;;;;;;;;4980542;28;20046;-78
2022/11/27 06:16:45;;;;;;;48.33;3.72;;;;;;;;;;4983327;28;20043;-79
2022/11/27 06:19:10;;;;;;;51.90;4.60;;;;;;;;;;4988336;28;20121;-81
2022/11/27 06:21:36;;;;;;;47.13;4.00;;;;;;;;;;4991732;28;20042;-79
2022/11/27 06:24:02;;;;;;;62.45;4.35;;;;;;;;;;4990510;28;20046;-79
2022/11/27 06:26:30;;;;;;;52.13;4.05;;;;;;;;;;4980243;28;20157;-79
2022/11/27 06:28:56;;;;;;;47.13;3.78;;;;;;;;;;4981816;28;20039;-78
2022/11/27 06:31:24;;;;;;;43.25;3.75;;;;;;;;;;4984844;28;20069;-78
2022/11/27 06:33:51;;;;;;;56.90;3.35;;;;;;;;;;4976590;28;20465;-79
2022/11/27 06:36:16;;;;;;;48.35;3.60;;;;;;;;;;4986751;28;20040;-79
2022/11/27 06:38:42;;;;;;;54.58;3.90;;;;;;;;;;4972351;28;20038;-80
2022/11/27 06:41:19;;;;;;;55.50;4.30;;;;;;;;;;4979372;28;20046;-79
2022/11/27 06:43:45;;;;;;;54.08;3.50;;;;;;;;;;4976029;28;20038;-78
2022/11/27 06:46:16;;;;;;;56.88;3.80;;;;;;;;;;4986314;28;20493;-78
2022/11/27 06:48:43;;;;;;;56.47;3.63;;;;;;;;;;4979889;28;20057;-78
2022/11/27 06:51:11;;;;;;;61.88;4.97;;;;;;;;;;4983822;28;20082;-78
2022/11/27 06:53:37;;;;;;;56.10;3.92;;;;;;;;;;4985539;28;20030;-79
2022/11/27 06:56:08;;;;;;;55.90;3.58;;;;;;;;;;4983161;28;20038;-79
2022/11/27 06:58:35;;;;;;;46.20;4.65;;;;;;;;;;4985971;28;20129;-78
2022/11/27 07:01:03;;;;;;;44.55;3.65;;;;;;;;;;4982562;28;20561;-79
2022/11/27 07:03:29;;;;;;;68.68;3.97;;;;;;;;;;4988398;28;20375;-79
2022/11/27 07:05:58;;;;;;;57.38;3.75;;;;;;;;;;4987336;28;20066;-79
2022/11/27 07:08:24;;;;;;;50.65;3.33;;;;;;;;;;4990900;28;20042;-79
2022/11/27 07:10:49;;;;;;;78.97;4.22;;;;;;;;;;4978780;28;20066;-79
2022/11/27 07:13:15;;;;;;;64.78;3.45;;;;;;;;;;4987470;28;20073;-79
2022/11/27 07:15:40;;;;;;;75.07;4.75;;;;;;;;;;4986349;28;20460;-79
2022/11/27 07:18:05;;;;;;;44.05;3.38;;;;;;;;;;4985736;28;20042;-79
2022/11/27 07:20:31;;;;;;;64.38;3.63;;;;;;;;;;4980838;28;20047;-79
2022/11/27 07:22:56;;;;;;;58.55;5.35;;;;;;;;;;4992263;28;20109;-78
2022/11/27 07:25:21;;;;;;;51.38;3.88;;;;;;;;;;4986506;28;20869;-79
2022/11/27 07:27:47;;;;;;;75.00;4.80;;;;;;;;;;4987943;28;20030;-79
2022/11/27 07:30:13;;;;;;;68.47;4.47;;;;;;;;;;4979269;28;20039;-78
2022/11/27 07:32:38;;;;;;;60.10;3.58;;;;;;;;;;4980168;28;20034;-78
2022/11/27 07:35:04;;;;;;;48.88;4.03;;;;;;;;;;4984957;28;20034;-79
2022/11/27 07:37:31;;;;;;;62.33;3.47;;;;;;;;;;4987837;28;20090;-79
2022/11/27 07:39:56;;;;;;;60.28;4.22;;;;;;;;;;4982661;28;20041;-79
2022/11/27 07:42:22;;;;;;;73.70;4.68;;;;;;;;;;4981468;28;20386;-79
2022/11/27 07:44:47;;;;;;;70.68;5.35;;;;;;;;;;4987583;28;20505;-79
2022/11/27 07:47:12;;;;;;;72.85;4.75;;;;;;;;;;4988597;28;20054;-79
2022/11/27 07:49:38;;;;;;;67.90;4.65;;;;;;;;;;4985270;28;20541;-79
2022/11/27 07:52:03;;;;;;;83.05;4.97;;;;;;;;;;4991549;28;20837;-79
2022/11/27 07:54:29;;;;;;;68.88;3.50;;;;;;;;;;4986182;28;20078;-79
2022/11/27 07:56:54;;;;;;;81.22;3.78;;;;;;;;;;4990899;28;20038;-79
2022/11/27 07:59:19;;;;;;;65.82;2.85;;;;;;;;;;4988825;28;20062;-79
2022/11/27 08:01:45;;;;;;;55.55;3.38;;;;;;;;;;4989856;28;20038;-79
2022/11/27 08:04:10;;;;;;;73.93;4.38;;;;;;;;;;4988068;28;20027;-79
2022/11/27 08:06:35;;;;;;;58.35;3.80;;;;;;;;;;4992080;28;20449;-81
2022/11/27 08:09:01;;;;;;;77.95;7.63;;;;;;;;;;4979738;28;20046;-79
2022/11/27 08:11:34;;;;;;;81.18;3.13;;;;;;;;;;4974782;28;20034;-79
2022/11/27 08:14:05;;;;;;;77.97;3.40;;;;;;;;;;4978925;28;20030;-79
2022/11/27 08:16:31;;;;;;;59.58;3.47;;;;;;;;;;4980928;28;20046;-79
2022/11/27 08:18:57;;;;;;;68.03;3.08;;;;;;;;;;4983331;28;20037;-79
2022/11/27 08:21:22;;;;;;;51.47;3.10;;;;;;;;;;4986797;28;20453;-80
2022/11/27 08:23:48;;;;;;;68.25;4.22;;;;;;;;;;4980335;28;20092;-79
2022/11/27 08:26:13;;;;;;;79.47;8.80;;;;;;;;;;4985147;28;20390;-79
2022/11/27 08:28:40;;;;;;;100.53;13.55;;;;;;;;;;4980816;28;20038;-79
2022/11/27 08:31:07;;;;;;;67.43;11.48;;;;;;;;;;4983323;28;20426;-79
2022/11/27 08:33:32;;;;;;;68.00;9.18;;;;;;;;;;4985932;28;20038;-80
2022/11/27 08:35:58;;;;;;;75.53;10.35;;;;;;;;;;4990153;28;20034;-79
2022/11/27 08:38:24;;;;;;;67.82;9.60;;;;;;;;;;4980772;28;20124;-79
2022/11/27 08:40:58;;;;;;;73.03;11.27;;;;;;;;;;4967663;28;20030;-79
2022/11/27 08:43:24;;;;;;;;;;;;;;;;;;4978293;28;20050;-79
2022/11/27 08:45:49;;;;;;;71.47;9.85;;;;;;;;;;4971679;28;19918;-80
2022/11/27 08:48:15;;;;;;;127.45;7.78;;;;;;;;;;4979099;28;20574;-79
2022/11/27 08:50:40;;;;;;;108.85;5.72;;;;;;;;;;4981336;28;20479;-79
2022/11/27 08:53:06;;;;;;;72.85;4.75;;;;;;;;;;4976702;28;20130;-79
2022/11/27 08:55:31;;;;;;;33.85;3.28;;;;;;;;;;4978712;28;20061;-79
2022/11/27 08:57:56;;;;;;;27.98;2.80;;;;;;;;;;4987262;28;20467;-80
2022/11/27 09:00:22;;;;;;;35.58;4.10;;;;;;;;;;4988868;28;20030;-79
2022/11/27 09:02:47;;;;;;;44.47;4.07;;;;;;;;;;4983650;28;20030;-79
2022/11/27 09:05:12;;;;;;;45.65;4.57;;;;;;;;;;4979679;28;20070;-79
2022/11/27 09:07:39;;;;;;;50.72;5.40;;;;;;;;;;4978266;28;20097;-80
2022/11/27 09:10:06;;;;;;;52.45;4.75;;;;;;;;;;4980336;28;20107;-79
2022/11/27 09:12:31;;;;;;;58.83;5.05;;;;;;;;;;4976691;28;20477;-79
2022/11/27 09:14:57;;;;;;;66.40;4.90;;;;;;;;;;4980743;28;20126;-80
2022/11/27 09:17:22;;;;;;;46.08;5.18;;;;;;;;;;4973853;28;20054;-80
2022/11/27 09:19:47;;;;;;;54.58;5.32;;;;;;;;;;4979703;28;20046;-79
2022/11/27 09:22:13;;;;;;;84.32;5.68;;;;;;;;;;4977077;28;20031;-79
2022/11/27 09:24:38;;;;;;;51.97;4.60;;;;;;;;;;4984079;28;20390;-79
2022/11/27 09:27:03;;;;;;;61.75;5.00;;;;;;;;;;4988407;28;20053;-78
2022/11/27 09:29:29;;;;;;;39.25;3.88;;;;;;;;;;5020346;28;20026;-79
2022/11/27 09:31:54;;;;;;;57.50;4.95;;;;;;;;;;4983989;28;20035;-80
2022/11/27 09:34:20;;;;;;;65.53;4.70;;;;;;;;;;4978272;28;20490;-79
2022/11/27 09:36:45;;;;;;;36.58;3.83;;;;;;;;;;4963074;28;20031;-80
2022/11/27 09:39:12;;;;;;;36.70;3.38;;;;;;;;;;4975657;28;20482;-79
2022/11/27 09:41:43;;;;;;;38.63;3.65;;;;;;;;;;4973987;28;20042;-79
2022/11/27 09:44:23;;;;;;;31.13;3.50;;;;;;;;;;4976776;28;20437;-78
2022/11/27 09:46:49;;;;;;;48.80;3.85;;;;;;;;;;4976669;28;20059;-78
2022/11/27 09:49:20;;;;;;;40.80;3.90;;;;;;;;;;4973180;28;20051;-78
2022/11/27 09:52:03;;;;;;;56.22;3.92;;;;;;;;;;4982124;28;20035;-78
2022/11/27 09:54:39;;;;;;;38.50;3.47;;;;;;;;;;4979570;28;20118;-78
2022/11/27 09:57:05;;;;;;;38.55;4.03;;;;;;;;;;4976077;28;20043;-78
2022/11/27 09:59:51;;;;;;;34.30;4.00;;;;;;;;;;4975842;28;20058;-78
2022/11/27 10:02:33;;;;;;;29.88;4.55;;;;;;;;;;4959335;28;20061;-78
2022/11/27 10:05:00;;;;;;;29.35;3.35;;;;;;;;;;5006359;28;20038;-78
2022/11/27 10:07:35;;;;;;;22.73;3.92;;;;;;;;;;4967208;28;20221;-79
2022/11/27 10:10:07;;;;;;;55.67;5.18;;;;;;;;;;4979778;28;20479;-78
2022/11/27 10:12:33;;;;;;;46.28;4.78;;;;;;;;;;4977351;28;20042;-79
2022/11/27 10:15:13;;;;;;;26.40;4.15;;;;;;;;;;4976474;28;20479;-79
2022/11/27 10:17:51;;;;;;;46.67;5.60;;;;;;;;;;4977413;28;20426;-78
2022/11/27 10:20:27;;;;;;;54.92;5.88;;;;;;;;;;4969337;28;20109;-78
2022/11/27 10:23:04;;;;;;;42.65;4.72;;;;;;;;;;4969907;28;20048;-78
2022/11/27 10:25:43;;;;;;;48.17;4.82;;;;;;;;;;4982058;28;20069;-79
2022/11/27 10:28:17;;;;;;;46.28;5.07;;;;;;;;;;5002544;28;20039;-79
2022/11/27 10:30:51;;;;;;;52.28;5.35;;;;;;;;;;4977351;28;20110;-79
2022/11/27 10:33:21;;;;;;;48.80;5.78;;;;;;;;;;4983456;28;20045;-79
2022/11/27 10:35:48;;;;;;;54.20;7.43;;;;;;;;;;4985626;28;20039;-78
2022/11/27 10:38:19;;;;;;;58.22;8.75;;;;;;;;;;4987095;28;20062;-79
2022/11/27 10:41:04;;;;;;;41.75;6.60;;;;;;;;;;4982874;28;20117;-78
2022/11/27 10:43:30;;;;;;;51.05;7.45;;;;;;;;;;4978541;28;20505;-78
2022/11/27 10:46:03;;;;;;;35.38;5.47;;;;;;;;;;4981149;28;20114;-78
2022/11/27 10:48:28;;;;;;;52.20;6.85;;;;;;;;;;4980767;28;20578;-78
2022/11/27 10:50:55;;;;;;;54.70;6.28;;;;;;;;;;4985380;28;20117;-79
2022/11/27 10:53:29;;;;;;;51.03;5.90;;;;;;;;;;4985158;28;20399;-78
2022/11/27 10:56:10;;;;;;;46.42;4.82;;;;;;;;;;4982218;28;20129;-78
2022/11/27 10:58:43;;;;;;;37.95;5.00;;;;;;;;;;4977579;28;20046;-78
2022/11/27 11:01:11;;;;;;;48.10;4.50;;;;;;;;;;4981310;28;20077;-78
2022/11/27 11:03:36;;;;;;;47.25;4.68;;;;;;;;;;4983464;28;20399;-78
2022/11/27 11:06:05;;;;;;;43.60;4.95;;;;;;;;;;4985100;28;20057;-78
2022/11/27 11:08:32;;;;;;;53.13;5.50;;;;;;;;;;4987873;28;20109;-78
2022/11/27 11:11:00;;;;;;;37.65;5.22;;;;;;;;;;4968625;28;20034;-79
2022/11/27 11:13:29;;;;;;;50.88;6.43;;;;;;;;;;4986877;28;20089;-79
2022/11/27 11:16:10;;;;;;;44.30;5.78;;;;;;;;;;4987023;28;20054;-79
2022/11/27 11:18:52;;;;;;;35.90;4.95;;;;;;;;;;4973475;28;20060;-79
2022/11/27 11:21:40;;;;;;;41.20;4.88;;;;;;;;;;4983854;28;20042;-79
2022/11/27 11:24:12;;;;;;;40.22;4.70;;;;;;;;;;5003813;28;20039;-79
2022/11/27 11:26:40;;;;;;;53.38;5.80;;;;;;;;;;4974333;28;20049;-79
2022/11/27 11:29:21;;;;;;;47.53;4.13;;;;;;;;;;4989034;28;20120;-78
2022/11/27 11:31:47;;;;;;;49.25;5.13;;;;;;;;;;4991605;28;20030;-78
2022/11/27 11:34:22;;;;;;;43.92;4.70;;;;;;;;;;4989567;28;20050;-78
2022/11/27 11:36:57;;;;;;;50.80;6.63;;;;;;;;;;4978540;28;20046;-79
2022/11/27 11:39:29;;;;;;;62.70;6.32;;;;;;;;;;4976223;28;20081;-79
2022/11/27 11:41:55;;;;;;;53.78;4.53;;;;;;;;;;4988768;28;20039;-78
2022/11/27 11:44:39;;;;;;;37.78;4.93;;;;;;;;;;4979112;28;20034;-79
2022/11/27 11:47:04;;;;;;;56.47;4.95;;;;;;;;;;4978987;28;20047;-78
2022/11/27 11:49:32;;;;;;;37.67;3.92;;;;;;;;;;4979226;28;20394;-78
2022/11/27 11:52:00;;;;;;;47.92;4.80;;;;;;;;;;4978926;28;20134;-79
2022/11/27 11:54:46;;;;;;;52.05;5.68;;;;;;;;;;4976034;28;20038;-79
2022/11/27 11:57:37;;;;;;;38.70;4.75;;;;;;;;;;4976173;28;20049;-78
2022/11/27 12:00:13;;;;;;;53.80;4.53;;;;;;;;;;4980748;28;20170;-78
2022/11/27 12:03:03;;;;;;;35.33;4.38;;;;;;;;;;4977110;28;20047;-78
2022/11/27 12:05:47;;;;;;;40.25;4.75;;;;;;;;;;4969362;28;20038;-78
2022/11/27 12:08:20;;;;;;;31.92;3.85;;;;;;;;;;4980818;28;20042;-78
2022/11/27 12:10:53;;;;;;;51.20;5.05;;;;;;;;;;4987656;28;20034;-78
2022/11/27 12:13:32;;;;;;;43.38;4.20;;;;;;;;;;4985988;28;20038;-78
2022/11/27 12:16:11;;;;;;;40.60;4.35;;;;;;;;;;4987409;28;20503;-78
2022/11/27 12:18:51;;;;;;;41.50;5.18;;;;;;;;;;4980062;28;20073;-78
2022/11/27 12:21:42;;;;;;;51.45;5.20;;;;;;;;;;4990078;28;20546;-78
2022/11/27 12:24:37;;;;;;;58.88;5.60;;;;;;;;;;4978747;28;20477;-78
2022/11/27 12:27:05;;;;;;;47.97;6.80;;;;;;;;;;5010761;28;20041;-78
2022/11/27 12:29:49;;;;;;;46.67;5.40;;;;;;;;;;4986236;28;20049;-79
2022/11/27 12:32:47;;;;;;;57.55;6.32;;;;;;;;;;4975113;28;20043;-79
2022/11/27 12:35:30;;;;;;;47.97;5.22;;;;;;;;;;4980824;28;20104;-78
2022/11/27 12:38:05;;;;;;;59.67;5.47;;;;;;;;;;4984564;28;20117;-78
2022/11/27 12:40:39;;;;;;;46.10;4.28;;;;;;;;;;4970418;28;20046;-78
2022/11/27 12:43:32;;;;;;;46.25;5.60;;;;;;;;;;4982713;28;20046;-78
2022/11/27 12:46:01;;;;;;;47.38;5.22;;;;;;;;;;4973467;28;20035;-78
2022/11/27 12:48:34;;;;;;;52.50;5.70;;;;;;;;;;4983673;28;20062;-78
2022/11/27 12:51:07;;;;;;;40.13;5.05;;;;;;;;;;4971894;28;20407;-78
2022/11/27 12:53:46;;;;;;;48.03;5.63;;;;;;;;;;4972899;28;20071;-79
2022/11/27 12:56:20;;;;;;;47.25;5.38;;;;;;;;;;4978031;28;20042;-78
2022/11/27 12:58:52;;;;;;;48.47;5.40;;;;;;;;;;4978428;28;20053;-78
2022/11/27 13:01:24;;;;;;;54.83;6.70;;;;;;;;;;4974044;28;20095;-78
2022/11/27 13:04:26;;;;;;;49.88;5.63;;;;;;;;;;4978857;28;20061;-78
2022/11/27 13:07:01;;;;;;;52.08;6.30;;;;;;;;;;5002251;28;20491;-78
2022/11/27 13:09:41;;;;;;;55.78;5.80;;;;;;;;;;4998541;28;20043;-79
2022/11/27 13:12:09;;;;;;;46.83;5.30;;;;;;;;;;4982809;28;20506;-79
2022/11/27 13:14:36;;;;;;;52.95;6.65;;;;;;;;;;4981468;28;20038;-78
2022/11/27 13:17:04;;;;;;;47.72;4.38;;;;;;;;;;4987991;28;20045;-78
2022/11/27 13:19:32;;;;;;;38.60;4.57;;;;;;;;;;4975112;28;20035;-78
2022/11/27 13:21:58;;;;;;;53.03;6.32;;;;;;;;;;4982421;28;20378;-78
2022/11/27 13:24:24;;;;;;;51.05;5.22;;;;;;;;;;4976482;28;20039;-78
2022/11/27 13:27:04;;;;;;;49.17;7.72;;;;;;;;;;4986629;28;20026;-78
2022/11/27 13:29:39;;;;;;;48.65;6.25;;;;;;;;;;4978897;28;20037;-78
2022/11/27 13:32:05;;;;;;;42.60;8.15;;;;;;;;;;4980554;28;20067;-79
2022/11/27 13:34:32;;;;;;;64.53;10.35;;;;;;;;;;4962178;28;20039;-78
2022/11/27 13:37:01;;;;;;;52.25;7.63;;;;;;;;;;4982792;28;20047;-78
2022/11/27 13:39:38;;;;;;;44.90;4.97;;;;;;;;;;4987810;28;20031;-78
2022/11/27 13:42:20;;;;;;;46.15;8.95;;;;;;;;;;4986820;28;20049;-78
2022/11/27 13:45:11;;;;;;;67.00;10.88;;;;;;;;;;4977393;28;20382;-78
2022/11/27 13:47:41;;;;;;;53.33;10.75;;;;;;;;;;4965144;28;20121;-78
2022/11/27 13:50:09;;;;;;;54.55;11.38;;;;;;;;;;4981772;28;20037;-78
2022/11/27 13:52:35;;;;;;;37.17;4.78;;;;;;;;;;4978238;28;20038;-78
2022/11/27 13:55:05;;;;;;;54.28;6.65;;;;;;;;;;4979505;28;20050;-77
2022/11/27 13:57:33;;;;;;;40.92;4.28;;;;;;;;;;4967286;28;20077;-77
2022/11/27 14:00:06;;;;;;;44.40;6.18;;;;;;;;;;4986662;28;20038;-78
2022/11/27 14:02:43;;;;;;;47.30;6.43;;;;;;;;;;4965106;28;20037;-78
2022/11/27 14:05:10;;;;;;;51.42;6.80;;;;;;;;;;4983249;28;20466;-78
2022/11/27 14:07:55;;;;;;;43.22;6.55;;;;;;;;;;4982600;28;20069;-79
2022/11/27 14:10:23;;;;;;;41.10;5.53;;;;;;;;;;4975419;28;20439;-78
2022/11/27 14:13:08;;;;;;;44.67;5.30;;;;;;;;;;4987431;28;20398;-78
2022/11/27 14:15:35;;;;;;;45.90;6.25;;;;;;;;;;4973212;28;20121;-78
2022/11/27 14:18:04;;;;;;;46.88;5.18;;;;;;;;;;4984757;28;20037;-78
2022/11/27 14:20:31;;;;;;;46.28;5.85;;;;;;;;;;4977370;28;20117;-78
2022/11/27 14:22:58;;;;;;;43.55;6.10;;;;;;;;;;4977500;28;20030;-78
2022/11/27 14:25:29;;;;;;;56.30;6.15;;;;;;;;;;4984667;28;20045;-78
2022/11/27 14:28:24;;;;;;;50.03;5.45;;;;;;;;;;4980433;28;20054;-79
2022/11/27 14:31:00;;;;;;;49.70;6.85;;;;;;;;;;4976902;28;20050;-79
2022/11/27 14:33:26;;;;;;;41.50;5.90;;;;;;;;;;4978902;28;20035;-79
2022/11/27 14:35:54;;;;;;;44.67;7.35;;;;;;;;;;4991480;28;20043;-78
2022/11/27 14:38:20;;;;;;;43.03;6.70;;;;;;;;;;4971196;28;20042;-79
2022/11/27 14:40:46;;;;;;;54.00;7.05;;;;;;;;;;4976294;28;20049;-79
2022/11/27 14:43:16;;;;;;;49.38;6.30;;;;;;;;;;4981527;28;20509;-79
2022/11/27 14:45:44;;;;;;;51.00;6.43;;;;;;;;;;4984512;28;20496;-79
2022/11/27 14:48:46;;;;;;;53.58;6.07;;;;;;;;;;4974217;28;20050;-79